Observations for CIAMPINO IT-AFB CV, Italy (LIRA)

LIRA 100220Z 06002KT CAVOK 08/06 Q1012  
LIRA 100150Z 03003KT CAVOK 09/06 Q1012  
LIRA 100120Z 01002KT CAVOK 08/06 Q1012  
LIRA 100050Z 04002KT CAVOK 10/07 Q1012  
LIRA 100020Z 05004KT CAVOK 11/07 Q1012  
LIRA 092350Z 35003KT CAVOK 10/07 Q1012  
LIRA 092320Z VRB02KT CAVOK 10/07 Q1012  
LIRA 092250Z 34004KT CAVOK 10/07 Q1012  
LIRA 092220Z 31006KT 9999 FEW050 13/08 Q1011
LIRA 092150Z 30006KT CAVOK 13/08 Q1011  
LIRA 092120Z VRB02KT CAVOK 13/08 Q1011  
LIRA 092050Z VRB02KT CAVOK 12/08 Q1011  
LIRA 092020Z 02003KT 340V050 9999 FEW060 12/07 Q1011
LIRA 091950Z 30007KT 9999 FEW060 14/07 Q1011
LIRA 091920Z 29007KT 270V330 9999 FEW060 14/07 Q1011
LIRA 091850Z 28006KT 230V310 9999 FEW060 14/07 Q1010
LIRA 091820Z 33012KT 9999 -RA FEW030 SCT060 14/07 Q1010 
LIRA 091750Z 36011KT CAVOK 15/06 Q1010  
LIRA 091720Z 32011KT CAVOK 15/06 Q1010  
LIRA 091650Z 31006KT 9999 SCT025 14/07 Q1010
LIRA 091620Z 30004KT 9999 SCT025 15/07 Q1010
LIRA 091550Z 31005KT 270V350 9999 FEW025 15/08 Q1010
LIRA 091520Z VRB01KT 9999 FEW025 16/11 Q1010
LIRA 091420Z VRB02KT 9999 FEW020 16/11 Q1010
LIRA 091350Z VRB02KT 9999 FEW025 16/11 Q1010
LIRA 091320Z 18004KT 150V210 9999 SCT025 16/11 Q1010
LIRA 091250Z 18006KT 160V220 9999 FEW020 SCT025 16/11 Q1010 
LIRA 091220Z 17006KT 9999 BKN025 15/11 Q1011
LIRA 091150Z 16008KT 9999 BKN025 15/10 Q1011
LIRA 091120Z 16008KT 9999 BKN020 15/10 Q1012
LIRA 091050Z 16009KT 120V200 9999 SCT020 SCT030 15/10 Q1012 
LIRA 091020Z 17012KT 9999 FEW020 SCT035 15/09 Q1012 
LIRA 090950Z 16011KT 140V200 9999 SCT025 14/09 Q1012
LIRA 090920Z 15008KT 9999 BKN025 14/08 Q1014
LIRA 090850Z 15009KT 9999 SCT025 14/08 Q1014
LIRA 090820Z 15005KT 9999 FEW020 13/08 Q1014
LIRA 090750Z 15006KT 9999 FEW020 12/07 Q1014
LIRA 090720Z 10004KT 9999 FEW025 08/05 Q1015
LIRA 090650Z 11006KT CAVOK 08/04 Q1014  
LIRA 090620Z 10005KT CAVOK 07/03 Q1015  
LIRA 090550Z 10006KT CAVOK 07/02 Q1015  
LIRA 090520Z 10006KT CAVOK 06/01 Q1016  
LIRA 090450Z 11005KT CAVOK 05/01 Q1016  
LIRA 090420Z 10005KT CAVOK 06/00 Q1016  
LIRA 090350Z 09004KT CAVOK 06/01 Q1016  
LIRA 090320Z 09003KT CAVOK 05/00 Q1017  
LIRA 090250Z 07002KT CAVOK 06/01 Q1017  
LIRA 090150Z 07002KT CAVOK 05/02 Q1017